sensor_id;sensor_type;location;lat;lon;timestamp;pressure;altitude;pressure_sealevel;temperature;humidity
10948;BME280;5526;42.070;24.752;2023-03-08T00:00:24;98216.94;;;9.15;74.38
10948;BME280;5526;42.070;24.752;2023-03-08T00:02:51;98214.59;;;9.09;75.01
10948;BME280;5526;42.070;24.752;2023-03-08T00:05:22;98218.00;;;9.09;75.63
10948;BME280;5526;42.070;24.752;2023-03-08T00:07:51;98222.47;;;9.04;75.57
10948;BME280;5526;42.070;24.752;2023-03-08T00:10:18;98225.63;;;8.96;75.88
10948;BME280;5526;42.070;24.752;2023-03-08T00:12:45;98224.28;;;8.88;76.14
10948;BME280;5526;42.070;24.752;2023-03-08T00:15:12;98221.38;;;8.74;77.15
10948;BME280;5526;42.070;24.752;2023-03-08T00:17:39;98210.09;;;8.54;78.90
10948;BME280;5526;42.070;24.752;2023-03-08T00:20:08;98221.34;;;8.54;78.99
10948;BME280;5526;42.070;24.752;2023-03-08T00:22:38;98211.91;;;8.53;79.03
10948;BME280;5526;42.070;24.752;2023-03-08T00:25:07;98213.47;;;8.44;79.49
10948;BME280;5526;42.070;24.752;2023-03-08T00:27:34;98213.47;;;8.44;79.71
10948;BME280;5526;42.070;24.752;2023-03-08T00:30:02;98214.22;;;8.35;80.36
10948;BME280;5526;42.070;24.752;2023-03-08T00:32:30;98212.09;;;8.32;80.36
10948;BME280;5526;42.070;24.752;2023-03-08T00:34:57;98210.78;;;8.29;80.98
10948;BME280;5526;42.070;24.752;2023-03-08T00:37:24;98206.63;;;8.33;80.81
10948;BME280;5526;42.070;24.752;2023-03-08T00:39:53;98200.31;;;8.29;80.53
10948;BME280;5526;42.070;24.752;2023-03-08T00:42:20;98209.22;;;8.33;80.40
10948;BME280;5526;42.070;24.752;2023-03-08T00:44:48;98207.13;;;8.30;80.46
10948;BME280;5526;42.070;24.752;2023-03-08T00:47:15;98205.56;;;8.29;80.34
10948;BME280;5526;42.070;24.752;2023-03-08T00:49:43;98210.00;;;8.29;80.06
10948;BME280;5526;42.070;24.752;2023-03-08T00:52:10;98202.38;;;8.22;80.04
10948;BME280;5526;42.070;24.752;2023-03-08T00:54:37;98201.03;;;8.20;80.05
10948;BME280;5526;42.070;24.752;2023-03-08T00:57:05;98186.06;;;8.10;79.57
10948;BME280;5526;42.070;24.752;2023-03-08T00:59:32;98196.03;;;8.18;80.05
10948;BME280;5526;42.070;24.752;2023-03-08T01:02:01;98196.03;;;8.18;79.96
10948;BME280;5526;42.070;24.752;2023-03-08T01:04:28;98198.69;;;8.23;79.78
10948;BME280;5526;42.070;24.752;2023-03-08T01:06:55;98197.59;;;8.19;80.22
10948;BME280;5526;42.070;24.752;2023-03-08T01:09:22;98200.78;;;8.16;80.81
10948;BME280;5526;42.070;24.752;2023-03-08T01:11:49;98195.28;;;8.18;81.25
10948;BME280;5526;42.070;24.752;2023-03-08T01:14:17;98189.47;;;8.16;80.85
10948;BME280;5526;42.070;24.752;2023-03-08T01:16:44;98193.41;;;8.18;80.79
10948;BME280;5526;42.070;24.752;2023-03-08T01:19:11;98191.03;;;8.12;80.42
10948;BME280;5526;42.070;24.752;2023-03-08T01:21:38;98195.53;;;8.16;80.52
10948;BME280;5526;42.070;24.752;2023-03-08T01:24:05;98202.34;;;8.17;80.42
10948;BME280;5526;42.070;24.752;2023-03-08T01:26:32;98197.91;;;8.18;80.49
10948;BME280;5526;42.070;24.752;2023-03-08T01:28:59;98198.41;;;8.15;80.10
10948;BME280;5526;42.070;24.752;2023-03-08T01:31:29;98198.03;;;7.91;82.57
10948;BME280;5526;42.070;24.752;2023-03-08T01:33:56;98203.00;;;7.83;83.16
10948;BME280;5526;42.070;24.752;2023-03-08T01:36:25;98197.75;;;7.83;83.33
10948;BME280;5526;42.070;24.752;2023-03-08T01:38:53;98199.59;;;7.87;83.53
10948;BME280;5526;42.070;24.752;2023-03-08T01:41:23;98204.31;;;7.90;83.08
10948;BME280;5526;42.070;24.752;2023-03-08T01:43:50;98202.50;;;7.91;83.62
10948;BME280;5526;42.070;24.752;2023-03-08T01:46:21;98183.59;;;7.79;83.06
10948;BME280;5526;42.070;24.752;2023-03-08T01:48:54;98206.66;;;7.87;82.70
10948;BME280;5526;42.070;24.752;2023-03-08T01:51:28;98204.06;;;7.87;83.29
10948;BME280;5526;42.070;24.752;2023-03-08T01:53:57;98201.94;;;7.89;83.13
10948;BME280;5526;42.070;24.752;2023-03-08T01:56:25;98214.47;;;7.77;84.93
10948;BME280;5526;42.070;24.752;2023-03-08T01:58:53;98217.63;;;7.79;85.47
10948;BME280;5526;42.070;24.752;2023-03-08T02:01:20;98212.59;;;7.72;87.51
10948;BME280;5526;42.070;24.752;2023-03-08T02:03:47;98203.19;;;7.76;86.77
10948;BME280;5526;42.070;24.752;2023-03-08T02:06:17;98203.47;;;7.75;87.15
10948;BME280;5526;42.070;24.752;2023-03-08T02:08:45;98197.41;;;7.69;86.33
10948;BME280;5526;42.070;24.752;2023-03-08T02:11:12;98201.31;;;7.67;86.72
10948;BME280;5526;42.070;24.752;2023-03-08T02:13:41;98201.31;;;7.67;86.66
10948;BME280;5526;42.070;24.752;2023-03-08T02:16:11;98201.28;;;7.62;86.48
10948;BME280;5526;42.070;24.752;2023-03-08T02:18:49;98206.25;;;7.58;85.95
10948;BME280;5526;42.070;24.752;2023-03-08T02:21:17;98192.38;;;7.63;85.28
10948;BME280;5526;42.070;24.752;2023-03-08T02:23:45;98198.97;;;7.65;83.80
10948;BME280;5526;42.070;24.752;2023-03-08T02:26:12;98201.59;;;7.65;82.96
10948;BME280;5526;42.070;24.752;2023-03-08T02:28:39;98208.13;;;7.68;82.50
10948;BME280;5526;42.070;24.752;2023-03-08T02:31:06;98211.34;;;7.38;85.83
10948;BME280;5526;42.070;24.752;2023-03-08T02:33:33;98213.41;;;7.31;86.32
10948;BME280;5526;42.070;24.752;2023-03-08T02:36:01;98196.63;;;7.27;86.44
10948;BME280;5526;42.070;24.752;2023-03-08T02:38:28;98207.13;;;7.32;87.03
10948;BME280;5526;42.070;24.752;2023-03-08T02:40:56;98206.34;;;7.32;87.06
10948;BME280;5526;42.070;24.752;2023-03-08T02:43:23;98212.34;;;7.32;86.16
10948;BME280;5526;42.070;24.752;2023-03-08T02:45:50;98205.56;;;7.36;85.54
10948;BME280;5526;42.070;24.752;2023-03-08T02:48:18;98205.09;;;7.44;84.37
10948;BME280;5526;42.070;24.752;2023-03-08T02:50:45;98211.16;;;7.50;83.03
10948;BME280;5526;42.070;24.752;2023-03-08T02:53:12;98213.81;;;7.55;82.33
10948;BME280;5526;42.070;24.752;2023-03-08T02:55:39;98218.28;;;7.59;81.90
10948;BME280;5526;42.070;24.752;2023-03-08T02:58:08;98224.56;;;7.58;82.26
10948;BME280;5526;42.070;24.752;2023-03-08T03:00:36;98218.50;;;7.16;86.26
10948;BME280;5526;42.070;24.752;2023-03-08T03:03:04;98224.81;;;7.20;86.08
10948;BME280;5526;42.070;24.752;2023-03-08T03:05:31;98236.22;;;7.04;88.14
10948;BME280;5526;42.070;24.752;2023-03-08T03:07:58;98232.06;;;7.08;87.91
10948;BME280;5526;42.070;24.752;2023-03-08T03:10:26;98238.78;;;6.99;88.46
10948;BME280;5526;42.070;24.752;2023-03-08T03:12:53;98238.44;;;6.91;89.34
10948;BME280;5526;42.070;24.752;2023-03-08T03:15:21;98236.44;;;7.03;88.95
10948;BME280;5526;42.070;24.752;2023-03-08T03:17:48;98235.22;;;7.10;88.59
10948;BME280;5526;42.070;24.752;2023-03-08T03:20:15;98230.50;;;7.12;88.24
10948;BME280;5526;42.070;24.752;2023-03-08T03:22:42;98225.03;;;7.14;87.09
10948;BME280;5526;42.070;24.752;2023-03-08T03:25:11;98218.50;;;7.16;86.27
10948;BME280;5526;42.070;24.752;2023-03-08T03:27:38;98223.78;;;7.21;85.81
10948;BME280;5526;42.070;24.752;2023-03-08T03:30:07;98229.31;;;7.25;85.13
10948;BME280;5526;42.070;24.752;2023-03-08T03:32:35;98228.06;;;7.32;84.31
10948;BME280;5526;42.070;24.752;2023-03-08T03:35:03;98232.75;;;7.30;84.33
10948;BME280;5526;42.070;24.752;2023-03-08T03:37:30;98235.38;;;7.30;83.55
10948;BME280;5526;42.070;24.752;2023-03-08T03:39:59;98239.94;;;7.13;85.17
10948;BME280;5526;42.070;24.752;2023-03-08T03:42:26;98237.78;;;7.05;85.20
10948;BME280;5526;42.070;24.752;2023-03-08T03:44:53;98241.34;;;6.94;86.01
10948;BME280;5526;42.070;24.752;2023-03-08T03:47:20;98249.50;;;6.98;86.34
10948;BME280;5526;42.070;24.752;2023-03-08T03:49:48;98254.16;;;6.96;86.32
10948;BME280;5526;42.070;24.752;2023-03-08T03:52:15;98253.66;;;6.94;87.64
10948;BME280;5526;42.070;24.752;2023-03-08T03:54:42;98263.66;;;7.02;86.66
10948;BME280;5526;42.070;24.752;2023-03-08T03:57:09;98265.72;;;7.00;87.12
10948;BME280;5526;42.070;24.752;2023-03-08T03:59:36;98263.94;;;7.05;86.56
10948;BME280;5526;42.070;24.752;2023-03-08T04:02:03;98266.56;;;7.05;86.69
10948;BME280;5526;42.070;24.752;2023-03-08T04:04:30;98272.38;;;7.12;86.39
10948;BME280;5526;42.070;24.752;2023-03-08T04:06:58;98276.78;;;7.07;86.90
10948;BME280;5526;42.070;24.752;2023-03-08T04:09:25;98275.28;;;6.89;87.76
10948;BME280;5526;42.070;24.752;2023-03-08T04:11:52;98275.34;;;6.94;87.92
10948;BME280;5526;42.070;24.752;2023-03-08T04:14:19;98272.78;;;6.99;86.92
10948;BME280;5526;42.070;24.752;2023-03-08T04:16:46;98278.03;;;6.99;87.33
10948;BME280;5526;42.070;24.752;2023-03-08T04:19:13;98271.75;;;7.00;86.85
10948;BME280;5526;42.070;24.752;2023-03-08T04:21:40;98277.50;;;7.02;87.27
10948;BME280;5526;42.070;24.752;2023-03-08T04:24:08;98285.22;;;7.14;86.42
10948;BME280;5526;42.070;24.752;2023-03-08T04:26:35;98281.31;;;7.16;86.30
10948;BME280;5526;42.070;24.752;2023-03-08T04:29:03;98288.63;;;7.14;86.06
10948;BME280;5526;42.070;24.752;2023-03-08T04:31:32;98285.50;;;7.17;86.03
10948;BME280;5526;42.070;24.752;2023-03-08T04:34:00;98292.00;;;7.15;86.00
10948;BME280;5526;42.070;24.752;2023-03-08T04:36:27;98282.34;;;7.15;85.50
10948;BME280;5526;42.070;24.752;2023-03-08T04:38:54;98286.53;;;7.16;85.42
10948;BME280;5526;42.070;24.752;2023-03-08T04:41:23;98299.09;;;7.14;85.46
10948;BME280;5526;42.070;24.752;2023-03-08T04:43:51;98284.41;;;7.13;85.40
10948;BME280;5526;42.070;24.752;2023-03-08T04:46:20;98288.34;;;7.16;85.40
10948;BME280;5526;42.070;24.752;2023-03-08T04:48:48;98290.97;;;7.16;85.54
10948;BME280;5526;42.070;24.752;2023-03-08T04:51:17;98295.72;;;7.19;85.79
10948;BME280;5526;42.070;24.752;2023-03-08T04:53:44;98288.16;;;7.22;85.51
10948;BME280;5526;42.070;24.752;2023-03-08T04:56:13;98283.47;;;7.24;85.10
10948;BME280;5526;42.070;24.752;2023-03-08T04:58:41;98292.13;;;7.25;84.99
10948;BME280;5526;42.070;24.752;2023-03-08T05:01:11;98287.16;;;7.28;85.37
10948;BME280;5526;42.070;24.752;2023-03-08T05:03:38;98288.25;;;7.32;84.49
10948;BME280;5526;42.070;24.752;2023-03-08T05:06:06;98304.25;;;7.36;85.04
10948;BME280;5526;42.070;24.752;2023-03-08T05:08:33;98303.50;;;7.40;84.83
10948;BME280;5526;42.070;24.752;2023-03-08T05:11:01;98305.13;;;7.46;84.13
10948;BME280;5526;42.070;24.752;2023-03-08T05:13:30;98303.19;;;7.32;84.48
10948;BME280;5526;42.070;24.752;2023-03-08T05:15:59;98297.66;;;7.33;85.41
10948;BME280;5526;42.070;24.752;2023-03-08T05:18:26;98303.25;;;7.42;85.16
10948;BME280;5526;42.070;24.752;2023-03-08T05:20:54;98303.78;;;7.44;84.21
10948;BME280;5526;42.070;24.752;2023-03-08T05:23:22;98313.66;;;7.32;84.23
10948;BME280;5526;42.070;24.752;2023-03-08T05:25:51;98307.56;;;7.26;84.59
10948;BME280;5526;42.070;24.752;2023-03-08T05:28:19;98311.28;;;7.30;84.78
10948;BME280;5526;42.070;24.752;2023-03-08T05:30:46;98310.56;;;7.40;84.25
10948;BME280;5526;42.070;24.752;2023-03-08T05:33:15;98310.03;;;7.43;84.25
10948;BME280;5526;42.070;24.752;2023-03-08T05:35:45;98300.72;;;7.52;83.93
10948;BME280;5526;42.070;24.752;2023-03-08T05:38:17;98306.84;;;7.67;84.04
10948;BME280;5526;42.070;24.752;2023-03-08T05:40:44;98300.88;;;7.77;83.44
10948;BME280;5526;42.070;24.752;2023-03-08T05:43:11;98303.84;;;7.90;83.44
10948;BME280;5526;42.070;24.752;2023-03-08T05:45:38;98302.41;;;8.09;83.18
10948;BME280;5526;42.070;24.752;2023-03-08T05:48:05;98302.53;;;8.29;82.49
10948;BME280;5526;42.070;24.752;2023-03-08T05:50:36;98309.84;;;8.22;83.02
10948;BME280;5526;42.070;24.752;2023-03-08T05:53:03;98286.66;;;8.04;82.81
10948;BME280;5526;42.070;24.752;2023-03-08T05:55:30;98319.44;;;8.12;84.01
10948;BME280;5526;42.070;24.752;2023-03-08T05:57:57;98326.22;;;8.03;84.08
10948;BME280;5526;42.070;24.752;2023-03-08T06:00:28;98334.56;;;8.36;83.60
10948;BME280;5526;42.070;24.752;2023-03-08T06:02:57;98345.00;;;8.31;83.03
10948;BME280;5526;42.070;24.752;2023-03-08T06:05:28;98355.66;;;8.20;83.58
10948;BME280;5526;42.070;24.752;2023-03-08T06:07:57;98357.25;;;7.84;85.74
10948;BME280;5526;42.070;24.752;2023-03-08T06:10:24;98354.22;;;7.97;84.71
10948;BME280;5526;42.070;24.752;2023-03-08T06:12:52;98361.78;;;8.30;83.91
10948;BME280;5526;42.070;24.752;2023-03-08T06:15:18;98362.91;;;8.03;84.08
10948;BME280;5526;42.070;24.752;2023-03-08T06:17:45;98366.75;;;7.95;84.89
10948;BME280;5526;42.070;24.752;2023-03-08T06:20:13;98366.53;;;7.65;86.85
10948;BME280;5526;42.070;24.752;2023-03-08T06:22:41;98361.69;;;7.79;86.30
10948;BME280;5526;42.070;24.752;2023-03-08T06:25:09;98370.03;;;7.76;87.13
10948;BME280;5526;42.070;24.752;2023-03-08T06:27:36;98365.75;;;8.01;86.63
10948;BME280;5526;42.070;24.752;2023-03-08T06:30:04;98366.75;;;8.32;85.21
10948;BME280;5526;42.070;24.752;2023-03-08T06:32:32;98318.69;;;8.16;84.15
10948;BME280;5526;42.070;24.752;2023-03-08T06:35:00;98369.88;;;8.85;83.62
10948;BME280;5526;42.070;24.752;2023-03-08T06:37:31;98376.00;;;9.11;80.56
10948;BME280;5526;42.070;24.752;2023-03-08T06:39:58;98386.59;;;9.41;79.45
10948;BME280;5526;42.070;24.752;2023-03-08T06:42:27;98383.69;;;9.53;77.69
10948;BME280;5526;42.070;24.752;2023-03-08T06:44:54;98380.81;;;9.69;76.91
10948;BME280;5526;42.070;24.752;2023-03-08T06:47:21;98389.50;;;9.95;75.51
10948;BME280;5526;42.070;24.752;2023-03-08T06:49:48;98392.41;;;10.08;74.17
10948;BME280;5526;42.070;24.752;2023-03-08T06:52:15;98401.59;;;10.31;73.13
10948;BME280;5526;42.070;24.752;2023-03-08T06:54:42;98406.84;;;10.41;72.15
10948;BME280;5526;42.070;24.752;2023-03-08T06:57:09;98407.34;;;10.43;71.89
10948;BME280;5526;42.070;24.752;2023-03-08T06:59:37;98411.53;;;10.54;70.75
10948;BME280;5526;42.070;24.752;2023-03-08T07:02:04;98421.53;;;10.67;71.15
10948;BME280;5526;42.070;24.752;2023-03-08T07:04:32;98428.69;;;10.41;71.44
10948;BME280;5526;42.070;24.752;2023-03-08T07:06:59;98432.91;;;10.37;72.28
10948;BME280;5526;42.070;24.752;2023-03-08T07:09:26;98425.19;;;10.66;71.85
10948;BME280;5526;42.070;24.752;2023-03-08T07:11:53;98427.41;;;11.07;70.75
10948;BME280;5526;42.070;24.752;2023-03-08T07:14:19;98435.09;;;10.99;70.85
10948;BME280;5526;42.070;24.752;2023-03-08T07:16:48;98431.47;;;11.38;69.97
10948;BME280;5526;42.070;24.752;2023-03-08T07:19:15;98433.63;;;11.31;69.54
10948;BME280;5526;42.070;24.752;2023-03-08T07:21:42;98432.69;;;11.56;68.96
10948;BME280;5526;42.070;24.752;2023-03-08T07:24:09;98440.44;;;11.86;67.49
10948;BME280;5526;42.070;24.752;2023-03-08T07:26:36;98441.53;;;11.80;66.05
10948;BME280;5526;42.070;24.752;2023-03-08T07:29:03;98442.97;;;12.01;66.34
10948;BME280;5526;42.070;24.752;2023-03-08T07:31:31;98440.00;;;12.07;65.88
10948;BME280;5526;42.070;24.752;2023-03-08T07:34:02;98433.63;;;12.42;63.26
10948;BME280;5526;42.070;24.752;2023-03-08T07:36:29;98432.81;;;12.46;64.31
10948;BME280;5526;42.070;24.752;2023-03-08T07:38:56;98428.97;;;12.86;63.63
10948;BME280;5526;42.070;24.752;2023-03-08T07:41:23;98432.34;;;12.91;62.92
10948;BME280;5526;42.070;24.752;2023-03-08T07:43:54;98420.69;;;13.16;61.74
10948;BME280;5526;42.070;24.752;2023-03-08T07:46:21;98423.94;;;13.50;60.61
10948;BME280;5526;42.070;24.752;2023-03-08T07:48:51;98424.66;;;13.74;59.13
10948;BME280;5526;42.070;24.752;2023-03-08T07:51:25;98425.44;;;13.75;59.34
10948;BME280;5526;42.070;24.752;2023-03-08T07:53:52;98426.28;;;13.70;59.27
10948;BME280;5526;42.070;24.752;2023-03-08T07:56:19;98431.56;;;13.89;58.79
10948;BME280;5526;42.070;24.752;2023-03-08T07:58:46;98421.63;;;13.99;58.45
10948;BME280;5526;42.070;24.752;2023-03-08T08:01:13;98427.69;;;14.00;58.04
10948;BME280;5526;42.070;24.752;2023-03-08T08:03:40;98426.38;;;14.34;57.75
10948;BME280;5526;42.070;24.752;2023-03-08T08:06:07;98433.16;;;14.54;56.98
10948;BME280;5526;42.070;24.752;2023-03-08T08:08:36;98423.84;;;14.83;55.89
10948;BME280;5526;42.070;24.752;2023-03-08T08:11:10;98429.72;;;15.07;54.53
10948;BME280;5526;42.070;24.752;2023-03-08T08:13:37;98414.34;;;15.36;54.65
10948;BME280;5526;42.070;24.752;2023-03-08T08:16:05;98420.97;;;15.47;53.20
10948;BME280;5526;42.070;24.752;2023-03-08T08:18:33;98417.31;;;15.57;52.95
10948;BME280;5526;42.070;24.752;2023-03-08T08:21:01;98419.03;;;15.75;52.57
10948;BME280;5526;42.070;24.752;2023-03-08T08:23:28;98416.44;;;15.83;52.43
10948;BME280;5526;42.070;24.752;2023-03-08T08:25:57;98416.31;;;15.88;50.09
10948;BME280;5526;42.070;24.752;2023-03-08T08:28:25;98414.59;;;15.48;51.76
10948;BME280;5526;42.070;24.752;2023-03-08T08:30:57;98414.06;;;15.60;49.63
10948;BME280;5526;42.070;24.752;2023-03-08T08:33:25;98413.00;;;15.47;51.18
10948;BME280;5526;42.070;24.752;2023-03-08T08:35:53;98426.88;;;16.02;50.19
10948;BME280;5526;42.070;24.752;2023-03-08T08:38:20;98425.00;;;15.80;48.65
10948;BME280;5526;42.070;24.752;2023-03-08T08:40:47;98427.19;;;16.00;50.11
10948;BME280;5526;42.070;24.752;2023-03-08T08:43:16;98426.69;;;15.98;49.94
10948;BME280;5526;42.070;24.752;2023-03-08T08:45:43;98424.28;;;16.10;49.76
10948;BME280;5526;42.070;24.752;2023-03-08T08:48:11;98410.53;;;16.08;47.66
10948;BME280;5526;42.070;24.752;2023-03-08T08:50:39;98424.13;;;16.37;47.67
10948;BME280;5526;42.070;24.752;2023-03-08T08:53:06;98415.19;;;16.55;46.72
10948;BME280;5526;42.070;24.752;2023-03-08T08:55:33;98421.22;;;16.78;45.65
10948;BME280;5526;42.070;24.752;2023-03-08T08:58:01;98413.66;;;16.63;45.62
10948;BME280;5526;42.070;24.752;2023-03-08T09:00:30;98408.66;;;16.61;45.86
10948;BME280;5526;42.070;24.752;2023-03-08T09:02:58;98411.41;;;16.87;46.03
10948;BME280;5526;42.070;24.752;2023-03-08T09:05:25;98410.56;;;17.26;45.25
10948;BME280;5526;42.070;24.752;2023-03-08T09:07:52;98403.88;;;17.37;44.24
10948;BME280;5526;42.070;24.752;2023-03-08T09:10:19;98410.41;;;17.22;44.99
10948;BME280;5526;42.070;24.752;2023-03-08T09:12:47;98406.06;;;16.78;45.08
10948;BME280;5526;42.070;24.752;2023-03-08T09:15:14;98400.94;;;16.90;44.40
10948;BME280;5526;42.070;24.752;2023-03-08T09:17:42;98400.00;;;16.86;42.86
10948;BME280;5526;42.070;24.752;2023-03-08T09:20:10;98380.47;;;16.99;43.67
10948;BME280;5526;42.070;24.752;2023-03-08T09:22:38;98394.28;;;17.19;43.36
10948;BME280;5526;42.070;24.752;2023-03-08T09:25:06;98377.75;;;17.64;42.44
10948;BME280;5526;42.070;24.752;2023-03-08T09:27:33;98384.81;;;17.43;41.08
10948;BME280;5526;42.070;24.752;2023-03-08T09:30:00;98384.66;;;17.57;41.40
10948;BME280;5526;42.070;24.752;2023-03-08T09:32:27;98371.31;;;17.99;41.18
10948;BME280;5526;42.070;24.752;2023-03-08T09:34:56;98380.41;;;17.98;40.98
10948;BME280;5526;42.070;24.752;2023-03-08T09:37:23;98387.53;;;18.23;40.85
10948;BME280;5526;42.070;24.752;2023-03-08T09:39:51;98382.06;;;18.37;40.49
10948;BME280;5526;42.070;24.752;2023-03-08T09:42:20;98384.34;;;18.55;39.84
10948;BME280;5526;42.070;24.752;2023-03-08T09:45:15;98388.81;;;18.34;39.19
10948;BME280;5526;42.070;24.752;2023-03-08T09:47:46;98392.81;;;18.57;39.61
10948;BME280;5526;42.070;24.752;2023-03-08T09:50:31;98396.16;;;18.83;38.47
10948;BME280;5526;42.070;24.752;2023-03-08T09:53:03;98383.94;;;19.03;38.10
10948;BME280;5526;42.070;24.752;2023-03-08T09:55:33;98390.09;;;19.03;38.34
10948;BME280;5526;42.070;24.752;2023-03-08T09:58:05;98390.34;;;20.13;33.80
10948;BME280;5526;42.070;24.752;2023-03-08T10:00:37;98380.06;;;19.50;34.78
10948;BME280;5526;42.070;24.752;2023-03-08T10:03:52;98387.41;;;19.32;33.30
10948;BME280;5526;42.070;24.752;2023-03-08T10:06:29;98381.13;;;18.70;33.57
10948;BME280;5526;42.070;24.752;2023-03-08T10:09:01;98379.22;;;18.79;33.33
10948;BME280;5526;42.070;24.752;2023-03-08T10:11:32;98380.91;;;18.84;33.07
10948;BME280;5526;42.070;24.752;2023-03-08T10:14:08;98371.94;;;18.97;33.42
10948;BME280;5526;42.070;24.752;2023-03-08T10:16:42;98375.50;;;19.71;33.47
10948;BME280;5526;42.070;24.752;2023-03-08T10:19:13;98367.47;;;20.03;32.30
10948;BME280;5526;42.070;24.752;2023-03-08T10:21:43;98378.34;;;19.86;32.21
10948;BME280;5526;42.070;24.752;2023-03-08T10:24:14;98364.31;;;19.57;32.60
10948;BME280;5526;42.070;24.752;2023-03-08T10:26:42;98360.84;;;19.77;32.92
10948;BME280;5526;42.070;24.752;2023-03-08T10:29:10;98363.22;;;20.11;32.47
10948;BME280;5526;42.070;24.752;2023-03-08T10:31:38;98356.75;;;20.12;32.59
10948;BME280;5526;42.070;24.752;2023-03-08T10:34:14;98352.38;;;19.75;31.94
10948;BME280;5526;42.070;24.752;2023-03-08T10:36:51;98345.78;;;19.40;32.10
10948;BME280;5526;42.070;24.752;2023-03-08T10:39:19;98310.13;;;19.56;32.97
10948;BME280;5526;42.070;24.752;2023-03-08T10:41:49;98344.66;;;19.61;32.75
10948;BME280;5526;42.070;24.752;2023-03-08T10:44:30;98323.34;;;19.53;33.27
10948;BME280;5526;42.070;24.752;2023-03-08T10:46:58;98334.03;;;19.53;33.72
10948;BME280;5526;42.070;24.752;2023-03-08T10:49:25;98328.03;;;19.76;33.37
10948;BME280;5526;42.070;24.752;2023-03-08T10:51:56;98317.22;;;19.52;32.62
10948;BME280;5526;42.070;24.752;2023-03-08T10:54:23;98327.00;;;19.48;32.70
10948;BME280;5526;42.070;24.752;2023-03-08T10:56:53;98320.19;;;19.71;32.44
10948;BME280;5526;42.070;24.752;2023-03-08T10:59:22;98317.38;;;19.88;32.38
10948;BME280;5526;42.070;24.752;2023-03-08T11:01:56;98312.19;;;20.04;32.14
10948;BME280;5526;42.070;24.752;2023-03-08T11:04:26;98312.41;;;19.99;32.16
10948;BME280;5526;42.070;24.752;2023-03-08T11:06:55;98300.97;;;20.10;31.78
10948;BME280;5526;42.070;24.752;2023-03-08T11:09:25;98305.81;;;20.41;32.55
10948;BME280;5526;42.070;24.752;2023-03-08T11:11:53;98291.78;;;21.59;30.12
10948;BME280;5526;42.070;24.752;2023-03-08T11:14:21;98300.88;;;22.13;29.26
10948;BME280;5526;42.070;24.752;2023-03-08T11:16:58;98299.56;;;21.92;29.17
10948;BME280;5526;42.070;24.752;2023-03-08T11:20:00;98288.88;;;20.73;29.32
10948;BME280;5526;42.070;24.752;2023-03-08T11:22:44;98282.63;;;20.69;30.27
10948;BME280;5526;42.070;24.752;2023-03-08T11:25:28;98272.94;;;20.52;29.57
10948;BME280;5526;42.070;24.752;2023-03-08T11:28:18;98274.06;;;20.63;28.80
10948;BME280;5526;42.070;24.752;2023-03-08T11:30:56;98270.16;;;20.49;29.82
10948;BME280;5526;42.070;24.752;2023-03-08T11:33:44;98269.47;;;20.40;28.63
10948;BME280;5526;42.070;24.752;2023-03-08T11:36:20;98270.38;;;20.32;28.80
10948;BME280;5526;42.070;24.752;2023-03-08T11:38:56;98261.78;;;20.74;29.24
10948;BME280;5526;42.070;24.752;2023-03-08T11:41:32;98261.16;;;21.17;28.30
10948;BME280;5526;42.070;24.752;2023-03-08T11:44:11;98254.09;;;21.25;27.77
10948;BME280;5526;42.070;24.752;2023-03-08T11:46:55;98261.63;;;21.35;27.67
10948;BME280;5526;42.070;24.752;2023-03-08T11:49:38;98259.44;;;21.52;28.45
10948;BME280;5526;42.070;24.752;2023-03-08T11:52:16;98251.41;;;21.52;28.07
10948;BME280;5526;42.070;24.752;2023-03-08T11:54:57;98251.66;;;21.47;28.18
10948;BME280;5526;42.070;24.752;2023-03-08T11:57:32;98251.78;;;21.66;28.68
10948;BME280;5526;42.070;24.752;2023-03-08T12:00:04;98253.22;;;21.91;28.28
10948;BME280;5526;42.070;24.752;2023-03-08T12:02:40;98252.53;;;22.10;27.90
10948;BME280;5526;42.070;24.752;2023-03-08T12:05:13;98247.00;;;22.03;27.08
10948;BME280;5526;42.070;24.752;2023-03-08T12:07:45;98245.03;;;22.31;27.22
10948;BME280;5526;42.070;24.752;2023-03-08T12:10:20;98245.59;;;22.55;27.42
10948;BME280;5526;42.070;24.752;2023-03-08T12:12:50;98238.22;;;23.82;25.27
10948;BME280;5526;42.070;24.752;2023-03-08T12:15:26;98233.19;;;23.39;26.88
10948;BME280;5526;42.070;24.752;2023-03-08T12:18:00;98233.28;;;23.23;27.40
10948;BME280;5526;42.070;24.752;2023-03-08T12:20:33;98226.69;;;22.83;28.56
10948;BME280;5526;42.070;24.752;2023-03-08T12:23:09;98226.28;;;22.65;28.18
10948;BME280;5526;42.070;24.752;2023-03-08T12:25:39;98218.88;;;22.43;28.77
10948;BME280;5526;42.070;24.752;2023-03-08T12:28:12;98227.25;;;22.42;29.13
10948;BME280;5526;42.070;24.752;2023-03-08T12:30:50;98228.69;;;22.70;29.03
10948;BME280;5526;42.070;24.752;2023-03-08T12:33:21;98225.47;;;22.80;28.32
10948;BME280;5526;42.070;24.752;2023-03-08T12:35:50;98222.94;;;22.87;28.42
10948;BME280;5526;42.070;24.752;2023-03-08T12:38:30;98230.34;;;22.75;28.03
10948;BME280;5526;42.070;24.752;2023-03-08T12:40:59;98226.81;;;22.71;28.12
10948;BME280;5526;42.070;24.752;2023-03-08T12:43:28;98228.50;;;22.79;28.60
10948;BME280;5526;42.070;24.752;2023-03-08T12:46:05;98221.13;;;22.91;28.32
10948;BME280;5526;42.070;24.752;2023-03-08T12:48:34;98214.72;;;23.56;26.74
10948;BME280;5526;42.070;24.752;2023-03-08T12:51:07;98207.41;;;23.15;27.22
10948;BME280;5526;42.070;24.752;2023-03-08T12:53:45;98215.97;;;23.02;27.95
10948;BME280;5526;42.070;24.752;2023-03-08T12:56:26;98208.66;;;23.02;27.87
10948;BME280;5526;42.070;24.752;2023-03-08T12:58:56;98194.06;;;23.00;27.75
10948;BME280;5526;42.070;24.752;2023-03-08T13:01:38;98202.88;;;22.31;27.28
10948;BME280;5526;42.070;24.752;2023-03-08T13:04:23;98211.66;;;21.97;28.27
10948;BME280;5526;42.070;24.752;2023-03-08T13:07:13;98215.34;;;22.08;28.42
10948;BME280;5526;42.070;24.752;2023-03-08T13:09:49;98208.78;;;22.06;28.71
10948;BME280;5526;42.070;24.752;2023-03-08T13:12:27;98213.59;;;22.31;27.25
10948;BME280;5526;42.070;24.752;2023-03-08T13:15:07;98207.31;;;22.24;27.90
10948;BME280;5526;42.070;24.752;2023-03-08T13:17:38;98202.38;;;22.26;27.40